createdAt,value
2023-03-29T00:01:11.112Z,101553.19
2023-03-29T00:04:02.434Z,101547.81
2023-03-29T00:06:33.278Z,101551.19
2023-03-29T00:09:01.814Z,101542.56
2023-03-29T00:11:29.674Z,101543.47
2023-03-29T00:13:57.417Z,101535.59
2023-03-29T00:16:25.347Z,101529.44
2023-03-29T00:18:53.049Z,101526.84
2023-03-29T00:21:22.267Z,101532.91
2023-03-29T00:23:50.981Z,101528.50
2023-03-29T00:26:18.741Z,101531.13
2023-03-29T00:28:46.521Z,101513.72
2023-03-29T00:31:15.494Z,101524.41
2023-03-29T00:33:43.700Z,101521.69
2023-03-29T00:36:12.513Z,101519.69
2023-03-29T00:38:41.653Z,101520.53
2023-03-29T00:41:10.593Z,101513.50
2023-03-29T00:43:59.267Z,101514.00
2023-03-29T00:46:28.748Z,101511.19
2023-03-29T00:48:59.929Z,101521.69
2023-03-29T00:51:29.569Z,101513.59
2023-03-29T00:54:01.232Z,101502.16
2023-03-29T00:56:31.415Z,101495.13
2023-03-29T00:59:03.639Z,101479.53
2023-03-29T01:01:35.076Z,101485.22
2023-03-29T01:04:05.939Z,101465.31
2023-03-29T01:06:35.603Z,101464.38
2023-03-29T01:09:09.228Z,101461.75
2023-03-29T01:11:39.755Z,101462.59
2023-03-29T01:14:11.312Z,101465.31
2023-03-29T01:16:39.414Z,101460.06
2023-03-29T01:19:08.866Z,101448.78
2023-03-29T01:21:39.813Z,101442.00
2023-03-29T01:24:43.159Z,101436.06
2023-03-29T01:27:15.817Z,101432.44
2023-03-29T01:29:47.037Z,101440.16
2023-03-29T01:32:17.762Z,101427.94
2023-03-29T01:34:49.676Z,101430.41
2023-03-29T01:37:19.964Z,101430.56
2023-03-29T01:39:47.781Z,101439.38
2023-03-29T01:42:31.803Z,101435.81
2023-03-29T01:45:07.890Z,101426.09
2023-03-29T01:47:43.584Z,101433.78
2023-03-29T01:50:15.477Z,101429.31
2023-03-29T01:52:47.967Z,101417.00
2023-03-29T01:55:18.412Z,101414.47
2023-03-29T01:57:47.975Z,101417.84
2023-03-29T02:00:19.837Z,101411.34
2023-03-29T02:02:48.759Z,101406.16
2023-03-29T02:05:17.628Z,101400.91
2023-03-29T02:07:46.448Z,101397.34
2023-03-29T02:10:14.878Z,101401.53
2023-03-29T02:12:42.709Z,101406.69
2023-03-29T02:15:13.256Z,101395.53
2023-03-29T02:17:43.590Z,101391.78
2023-03-29T02:20:15.072Z,101384.84
2023-03-29T02:22:47.690Z,101373.41
2023-03-29T02:25:15.906Z,101372.66
2023-03-29T02:27:43.656Z,101368.31
2023-03-29T02:30:12.651Z,101362.13
2023-03-29T02:32:50.213Z,101361.28
2023-03-29T02:35:22.920Z,101357.97
2023-03-29T02:37:52.840Z,101359.94
2023-03-29T02:40:20.924Z,101364.16
2023-03-29T02:42:49.907Z,101355.34
2023-03-29T02:45:18.665Z,101357.03
2023-03-29T02:47:51.591Z,101350.38
2023-03-29T02:50:19.936Z,101359.19
2023-03-29T02:52:53.533Z,101343.66
2023-03-29T02:55:24.673Z,101340.84
2023-03-29T02:57:52.407Z,101345.03
2023-03-29T03:00:23.220Z,101345.78
2023-03-29T03:02:52.489Z,101335.03
2023-03-29T03:05:20.480Z,101337.75
2023-03-29T03:07:48.193Z,101336.88
2023-03-29T03:10:16.063Z,101342.06
2023-03-29T03:12:43.791Z,101339.25
2023-03-29T03:15:12.113Z,101341.03
2023-03-29T03:17:40.408Z,101338.41
2023-03-29T03:20:13.783Z,101332.66
2023-03-29T03:22:42.515Z,101330.03
2023-03-29T03:25:11.561Z,101329.09
2023-03-29T03:27:39.844Z,101330.78
2023-03-29T03:30:08.830Z,101333.41
2023-03-29T03:32:37.417Z,101317.66
2023-03-29T03:35:05.867Z,101319.28
2023-03-29T03:37:34.983Z,101314.03
2023-03-29T03:40:05.627Z,101321.81
2023-03-29T03:42:33.767Z,101316.56
2023-03-29T03:45:01.806Z,101319.00
2023-03-29T03:47:29.582Z,101317.94
2023-03-29T03:49:57.317Z,101323.00
2023-03-29T03:52:25.288Z,101312.50
2023-03-29T03:54:54.356Z,101317.94
2023-03-29T03:57:22.942Z,101320.03
2023-03-29T03:59:50.591Z,101323.50
2023-03-29T04:02:20.246Z,101303.34
2023-03-29T04:04:48.009Z,101309.53
2023-03-29T04:07:17.828Z,101304.38
2023-03-29T04:09:45.896Z,101297.25
2023-03-29T04:12:14.968Z,101299.88
2023-03-29T04:14:42.765Z,101294.63
2023-03-29T04:17:10.478Z,101292.00
2023-03-29T04:19:38.187Z,101298.94
2023-03-29T04:22:05.902Z,101293.03
2023-03-29T04:24:33.560Z,101281.69
2023-03-29T04:27:01.270Z,101291.81
2023-03-29T04:29:30.457Z,101278.69
2023-03-29T04:31:58.141Z,101284.13
2023-03-29T04:34:25.843Z,101272.13
2023-03-29T04:36:53.512Z,101278.88
2023-03-29T04:39:21.710Z,101284.88
2023-03-29T04:41:49.331Z,101284.81
2023-03-29T04:44:17.010Z,101276.75
2023-03-29T04:46:46.107Z,101279.28
2023-03-29T04:49:13.774Z,101269.47
2023-03-29T04:51:41.479Z,101267.94
2023-03-29T04:54:09.148Z,101266.34
2023-03-29T04:56:36.806Z,101269.81
2023-03-29T04:59:04.685Z,101277.59
2023-03-29T05:01:32.775Z,101285.47
2023-03-29T05:04:02.473Z,101285.66
2023-03-29T05:06:31.019Z,101278.69
2023-03-29T05:08:59.026Z,101279.63
2023-03-29T05:11:27.532Z,101276.06
2023-03-29T05:13:57.144Z,101268.03
2023-03-29T05:16:26.440Z,101275.91
2023-03-29T05:18:55.371Z,101272.34
2023-03-29T05:21:26.118Z,101265.41
2023-03-29T05:23:53.900Z,101281.06
2023-03-29T05:26:22.303Z,101278.34
2023-03-29T05:28:49.948Z,101272.34
2023-03-29T05:31:17.821Z,101259.97
2023-03-29T05:33:45.548Z,101259.97
2023-03-29T05:36:15.425Z,101258.13
2023-03-29T05:38:46.817Z,101261.16
2023-03-29T05:41:14.796Z,101256.66
2023-03-29T05:43:42.873Z,101254.88
2023-03-29T05:46:12.222Z,101259.28
2023-03-29T05:48:40.002Z,101258.69
2023-03-29T05:51:08.348Z,101261.31
2023-03-29T05:53:36.429Z,101261.31
2023-03-29T05:56:06.544Z,101260.56
2023-03-29T05:58:34.224Z,101263.09
2023-03-29T06:01:05.414Z,101251.41
2023-03-29T06:03:33.634Z,101259.94
2023-03-29T06:06:03.874Z,101259.00
2023-03-29T06:08:31.875Z,101266.72
2023-03-29T06:11:04.452Z,101259.84
2023-03-29T06:13:34.557Z,101260.63
2023-03-29T06:16:04.224Z,101260.63
2023-03-29T06:18:32.243Z,101259.50
2023-03-29T06:21:00.713Z,101256.53
2023-03-29T06:23:28.938Z,101258.22
2023-03-29T06:25:56.766Z,101254.72
2023-03-29T06:28:25.070Z,101259.41
2023-03-29T06:30:56.452Z,101258.41
2023-03-29T06:33:25.397Z,101261.69
2023-03-29T06:35:53.210Z,101261.59
2023-03-29T06:38:21.830Z,101256.31
2023-03-29T06:40:49.909Z,101256.16
2023-03-29T06:43:17.672Z,101256.81
2023-03-29T06:45:45.774Z,101269.03
2023-03-29T06:48:14.902Z,101266.31
2023-03-29T06:50:43.029Z,101262.91
2023-03-29T06:53:11.522Z,101270.75
2023-03-29T06:55:39.250Z,101266.31
2023-03-29T06:58:08.248Z,101262.91
2023-03-29T07:00:38.940Z,101276.66
2023-03-29T07:03:09.842Z,101276.28
2023-03-29T07:05:40.939Z,101277.78
2023-03-29T07:08:16.485Z,101277.72
2023-03-29T07:10:47.274Z,101267.28
2023-03-29T07:13:15.724Z,101274.69
2023-03-29T07:15:44.954Z,101268.13
2023-03-29T07:18:13.540Z,101273.00
2023-03-29T07:20:43.109Z,101265.88
2023-03-29T07:23:11.459Z,101280.50
2023-03-29T07:25:39.356Z,101282.41
2023-03-29T07:28:07.465Z,101284.28
2023-03-29T07:30:35.242Z,101284.28
2023-03-29T07:33:03.024Z,101276.00
2023-03-29T07:35:32.828Z,101295.09
2023-03-29T07:38:02.032Z,101289.63
2023-03-29T07:40:31.005Z,101288.44
2023-03-29T07:42:59.011Z,101290.84
2023-03-29T07:45:29.204Z,101284.59
2023-03-29T07:47:58.854Z,101282.69
2023-03-29T07:50:27.116Z,101291.25
2023-03-29T07:52:54.919Z,101292.13
2023-03-29T07:55:23.998Z,101286.56
2023-03-29T07:57:51.732Z,101288.06
2023-03-29T08:00:20.620Z,101274.44
2023-03-29T08:02:50.758Z,101280.34
2023-03-29T08:05:29.139Z,101279.13
2023-03-29T08:08:01.472Z,101277.72
2023-03-29T08:10:30.544Z,101278.81
2023-03-29T08:12:58.267Z,101276.19
2023-03-29T08:15:26.527Z,101283.50
2023-03-29T08:17:54.175Z,101291.69
2023-03-29T08:20:22.178Z,101290.53
2023-03-29T08:22:50.021Z,101288.84
2023-03-29T08:25:17.714Z,101288.00
2023-03-29T08:27:46.844Z,101293.81
2023-03-29T08:30:14.892Z,101288.44
2023-03-29T08:32:42.770Z,101295.19
2023-03-29T08:35:10.990Z,101294.56
2023-03-29T08:37:38.858Z,101299.25
2023-03-29T08:40:07.928Z,101298.31
2023-03-29T08:42:59.227Z,101295.50
2023-03-29T08:45:30.545Z,101297.94
2023-03-29T08:48:05.289Z,101290.03
2023-03-29T08:50:35.226Z,101294.19
2023-03-29T08:53:05.907Z,101285.53
2023-03-29T08:55:35.117Z,101284.78
2023-03-29T08:58:08.486Z,101271.81
2023-03-29T09:00:38.785Z,101276.69
2023-03-29T09:03:11.357Z,101274.59
2023-03-29T09:05:41.401Z,101272.50
2023-03-29T09:08:13.328Z,101265.78
2023-03-29T09:10:44.287Z,101268.03
2023-03-29T09:13:23.144Z,101256.03
2023-03-29T09:15:54.046Z,101263.31
2023-03-29T09:18:27.511Z,101279.91
2023-03-29T09:20:57.506Z,101275.38
2023-03-29T09:23:46.995Z,101261.25
2023-03-29T09:26:22.282Z,101264.59
2023-03-29T09:28:57.854Z,101257.78
2023-03-29T09:31:28.541Z,101264.47
2023-03-29T09:33:59.369Z,101271.00
2023-03-29T09:36:34.654Z,101279.03
2023-03-29T09:39:02.711Z,101275.66
2023-03-29T09:41:33.717Z,101266.81
2023-03-29T09:44:10.875Z,101262.25
2023-03-29T09:46:44.630Z,101259.44
2023-03-29T09:49:17.481Z,101270.59
2023-03-29T09:51:45.981Z,101280.75
2023-03-29T09:54:13.829Z,101286.63
2023-03-29T09:56:41.908Z,101270.28
2023-03-29T09:59:12.828Z,101276.00
2023-03-29T10:01:42.508Z,101265.97
2023-03-29T10:04:11.446Z,101267.44
2023-03-29T10:06:43.243Z,101268.28
2023-03-29T10:09:16.358Z,101273.47
2023-03-29T10:11:48.052Z,101257.84
2023-03-29T10:14:19.258Z,101260.59
2023-03-29T10:16:47.553Z,101270.31
2023-03-29T10:19:21.313Z,101266.72
2023-03-29T10:21:50.099Z,101259.41
2023-03-29T10:24:21.246Z,101259.31
2023-03-29T10:26:51.791Z,101254.56
2023-03-29T10:29:20.855Z,101254.38
2023-03-29T10:31:48.644Z,101250.34
2023-03-29T10:34:17.938Z,101242.72
2023-03-29T10:36:47.688Z,101243.53
2023-03-29T10:39:16.634Z,101256.94
2023-03-29T10:41:45.190Z,101247.81
2023-03-29T10:44:30.328Z,101247.72
2023-03-29T10:47:09.926Z,101225.53
2023-03-29T10:49:41.830Z,101236.16
2023-03-29T10:52:10.275Z,101239.44
2023-03-29T10:54:38.189Z,101239.44
2023-03-29T10:57:09.139Z,101244.72
2023-03-29T10:59:46.309Z,101243.88
2023-03-29T11:02:41.805Z,101240.75
2023-03-29T11:05:19.220Z,101237.69
2023-03-29T11:07:57.220Z,101229.19
2023-03-29T11:10:32.884Z,101222.94
2023-03-29T11:13:09.017Z,101213.97
2023-03-29T11:15:50.691Z,101224.28
2023-03-29T11:18:56.531Z,101231.16
2023-03-29T11:21:28.672Z,101235.03
2023-03-29T11:24:03.330Z,101229.31
2023-03-29T11:26:35.624Z,101237.75
2023-03-29T11:29:05.570Z,101231.00
2023-03-29T11:31:39.141Z,101231.75
2023-03-29T11:34:19.752Z,101234.28
2023-03-29T11:36:55.135Z,101230.53
2023-03-29T11:39:31.013Z,101220.22
2023-03-29T11:42:04.464Z,101215.31
2023-03-29T11:44:32.369Z,101208.69
2023-03-29T11:47:03.666Z,101217.06
2023-03-29T11:49:33.369Z,101210.56
2023-03-29T11:52:06.212Z,101209.38
2023-03-29T11:54:36.600Z,101205.53
2023-03-29T11:57:07.196Z,101192.78
2023-03-29T11:59:37.459Z,101190.16
2023-03-29T12:02:14.501Z,101193.63
2023-03-29T12:04:43.988Z,101190.28
2023-03-29T12:07:15.294Z,101195.91
2023-03-29T12:09:50.031Z,101183.16
2023-03-29T12:12:21.699Z,101184.94
2023-03-29T12:14:56.045Z,101194.34
2023-03-29T12:17:30.024Z,101191.06
2023-03-29T12:20:05.560Z,101183.59
2023-03-29T12:22:33.636Z,101190.00
2023-03-29T12:25:03.368Z,101186.38
2023-03-29T12:27:31.619Z,101185.31
2023-03-29T12:30:23.406Z,101186.38
2023-03-29T12:33:12.479Z,101189.53
2023-03-29T12:35:48.621Z,101185.66
2023-03-29T12:38:20.337Z,101178.84
2023-03-29T12:40:50.077Z,101182.22
2023-03-29T12:43:24.674Z,101175.13
2023-03-29T12:45:56.112Z,101177.28
2023-03-29T12:48:27.211Z,101169.81
2023-03-29T12:51:00.769Z,101176.94
2023-03-29T12:53:31.685Z,101179.94
2023-03-29T12:56:11.599Z,101177.88
2023-03-29T12:58:58.395Z,101170.06
2023-03-29T13:01:29.329Z,101165.34
2023-03-29T13:04:14.757Z,101168.38
2023-03-29T13:07:03.130Z,101170.31
2023-03-29T13:09:35.467Z,101174.25
2023-03-29T13:12:17.787Z,101167.66
2023-03-29T13:14:47.637Z,101171.00
2023-03-29T13:17:25.679Z,101159.44
2023-03-29T13:20:26.440Z,101161.38
2023-03-29T13:23:03.405Z,101150.66
2023-03-29T13:25:45.103Z,101141.75
2023-03-29T13:28:17.612Z,101142.38
2023-03-29T13:30:53.034Z,101136.81
2023-03-29T13:33:46.199Z,101138.50
2023-03-29T13:36:24.683Z,101143.69
2023-03-29T13:38:55.313Z,101139.47
2023-03-29T13:41:33.742Z,101137.09
2023-03-29T13:44:01.849Z,101137.66
2023-03-29T13:46:40.922Z,101142.38
2023-03-29T13:49:17.000Z,101127.09
2023-03-29T13:52:00.862Z,101131.31
2023-03-29T13:54:30.885Z,101116.38
2023-03-29T13:57:02.836Z,101128.06
2023-03-29T13:59:40.420Z,101113.25
2023-03-29T14:02:08.494Z,101106.28
2023-03-29T14:04:39.462Z,101099.31
2023-03-29T14:07:14.596Z,101106.53
2023-03-29T14:09:45.161Z,101099.56
2023-03-29T14:12:15.320Z,101094.41
2023-03-29T14:14:56.082Z,101102.34
2023-03-29T14:17:26.155Z,101094.28
2023-03-29T14:19:58.824Z,101098.84
2023-03-29T14:22:32.094Z,101079.47
2023-03-29T14:25:03.339Z,101091.84
2023-03-29T14:27:32.827Z,101088.50
2023-03-29T14:30:01.126Z,101091.41
2023-03-29T14:32:30.481Z,101089.22
2023-03-29T14:34:58.746Z,101081.63
2023-03-29T14:37:29.040Z,101069.44
2023-03-29T14:39:56.988Z,101072.31
2023-03-29T14:42:27.553Z,101063.16
2023-03-29T14:44:59.447Z,101061.97
2023-03-29T14:47:29.333Z,101068.19
2023-03-29T14:50:00.850Z,101064.72
2023-03-29T14:52:30.789Z,101067.25
2023-03-29T14:55:01.035Z,101060.25
2023-03-29T14:57:34.307Z,101050.50
2023-03-29T15:01:47.397Z,101057.59
2023-03-29T15:04:15.451Z,101066.38
2023-03-29T15:06:46.769Z,101057.59
2023-03-29T15:09:19.162Z,101050.34
2023-03-29T15:11:52.575Z,101051.19
2023-03-29T15:14:21.070Z,101053.81
2023-03-29T15:16:52.617Z,101036.97
2023-03-29T15:19:22.049Z,101036.72
2023-03-29T15:21:50.577Z,101026.69
2023-03-29T15:24:23.440Z,101026.47
2023-03-29T15:27:18.145Z,101019.13
2023-03-29T15:29:48.006Z,101014.66
2023-03-29T15:32:22.630Z,101020.09
2023-03-29T15:34:59.453Z,101022.59
2023-03-29T15:37:27.394Z,101019.00
2023-03-29T15:39:56.299Z,101024.28
2023-03-29T15:42:25.753Z,101016.19
2023-03-29T15:44:56.162Z,101009.22
2023-03-29T15:47:24.167Z,100981.19
2023-03-29T15:49:51.984Z,100972.97
2023-03-29T15:52:19.753Z,100976.59
2023-03-29T15:54:47.683Z,100976.47
2023-03-29T15:57:16.621Z,100977.31
2023-03-29T15:59:45.837Z,100967.13
2023-03-29T16:02:15.848Z,100975.25
2023-03-29T16:04:43.992Z,100965.50
2023-03-29T16:07:15.309Z,100969.13
2023-03-29T16:09:43.613Z,100958.25
2023-03-29T16:12:11.691Z,100949.47
2023-03-29T16:14:41.846Z,100944.28
2023-03-29T16:17:12.381Z,100951.03
2023-03-29T16:19:40.102Z,100934.16
2023-03-29T16:22:07.895Z,100926.91
2023-03-29T16:24:36.414Z,100924.25
2023-03-29T16:27:04.466Z,100916.44
2023-03-29T16:29:32.605Z,100916.44
2023-03-29T16:32:00.629Z,100917.28
2023-03-29T16:34:30.040Z,100915.59
2023-03-29T16:36:57.947Z,100905.00
2023-03-29T16:39:25.783Z,100908.63
2023-03-29T16:41:53.430Z,100905.84
2023-03-29T16:44:23.828Z,100908.50
2023-03-29T16:46:53.616Z,100894.41
2023-03-29T16:49:21.448Z,100898.72
2023-03-29T16:51:50.714Z,100896.22
2023-03-29T16:54:18.843Z,100893.44
2023-03-29T16:56:46.896Z,100897.16
2023-03-29T16:59:15.235Z,100886.56
2023-03-29T17:01:43.111Z,100875.88
2023-03-29T17:04:11.582Z,100869.84
2023-03-29T17:06:39.292Z,100861.78
2023-03-29T17:09:08.588Z,100875.88
2023-03-29T17:11:36.571Z,100884.78
2023-03-29T17:14:06.392Z,100879.34
2023-03-29T17:16:34.231Z,100882.13
2023-03-29T17:19:02.008Z,100876.84
2023-03-29T17:21:29.958Z,100868.16
2023-03-29T17:23:57.698Z,100869.00
2023-03-29T17:26:27.270Z,100868.16
2023-03-29T17:28:54.996Z,100867.19
2023-03-29T17:31:22.886Z,100869.84
2023-03-29T17:33:52.150Z,100871.53
2023-03-29T17:36:23.942Z,100856.72
2023-03-29T17:38:51.901Z,100852.25
2023-03-29T17:41:19.981Z,100850.59
2023-03-29T17:43:50.939Z,100849.75
2023-03-29T17:46:22.779Z,100843.63
2023-03-29T17:48:50.944Z,100836.78
2023-03-29T17:51:19.650Z,100821.88
2023-03-29T17:53:47.436Z,100813.03
2023-03-29T17:56:15.147Z,100809.84
2023-03-29T17:58:42.857Z,100808.72
2023-03-29T18:01:12.787Z,100817.94
2023-03-29T18:03:40.639Z,100825.03
2023-03-29T18:06:09.132Z,100815.28
2023-03-29T18:08:36.818Z,100813.59
2023-03-29T18:11:08.412Z,100818.16
2023-03-29T18:13:36.053Z,100813.13
2023-03-29T18:16:04.345Z,100808.09
2023-03-29T18:18:33.890Z,100801.84
2023-03-29T18:21:01.825Z,100797.38
2023-03-29T18:23:29.797Z,100793.06
2023-03-29T18:26:00.860Z,100780.66
2023-03-29T18:28:28.597Z,100779.91
2023-03-29T18:30:56.537Z,100788.84
2023-03-29T18:33:24.473Z,100789.56
2023-03-29T18:35:53.602Z,100783.53
2023-03-29T18:38:23.300Z,100785.22
2023-03-29T18:40:51.598Z,100777.28
2023-03-29T18:43:19.371Z,100766.81
2023-03-29T18:45:47.521Z,100768.50
2023-03-29T18:48:15.622Z,100771.97
2023-03-29T18:50:44.736Z,100781.47
2023-03-29T18:53:14.306Z,100783.00
2023-03-29T18:55:42.602Z,100769.63
2023-03-29T18:58:10.622Z,100774.81
2023-03-29T19:00:38.432Z,100774.81
2023-03-29T19:03:06.343Z,100773.13
2023-03-29T19:05:34.287Z,100771.31
2023-03-29T19:08:04.358Z,100774.94
2023-03-29T19:10:36.241Z,100775.75
2023-03-29T19:13:04.142Z,100776.59
2023-03-29T19:15:32.345Z,100768.66
2023-03-29T19:18:00.263Z,100764.34
2023-03-29T19:20:28.128Z,100766.00
2023-03-29T19:22:55.854Z,100750.03
2023-03-29T19:25:23.597Z,100742.94
2023-03-29T19:27:52.682Z,100752.69
2023-03-29T19:30:23.282Z,100733.31
2023-03-29T19:32:51.452Z,100726.41
2023-03-29T19:35:19.725Z,100731.84
2023-03-29T19:37:47.736Z,100734.78
2023-03-29T19:40:15.445Z,100723.34
2023-03-29T19:42:43.116Z,100715.25
2023-03-29T19:45:12.590Z,100720.28
2023-03-29T19:50:12.249Z,100720.06
2023-03-29T19:52:39.961Z,100715.59
2023-03-29T19:55:10.052Z,100719.19
2023-03-29T19:57:38.182Z,100712.94
2023-03-29T20:00:08.073Z,100700.53
2023-03-29T20:02:37.481Z,100706.69
2023-03-29T20:05:05.684Z,100714.75
2023-03-29T20:07:33.376Z,100704.03
2023-03-29T20:10:01.503Z,100693.44
2023-03-29T20:12:29.209Z,100683.06
2023-03-29T20:14:56.916Z,100685.47
2023-03-29T20:17:24.639Z,100680.19
2023-03-29T20:19:53.981Z,100685.47
2023-03-29T20:22:21.690Z,100680.19
2023-03-29T20:24:49.430Z,100683.66
2023-03-29T20:27:17.191Z,100680.19
2023-03-29T20:29:44.868Z,100680.19
2023-03-29T20:32:12.763Z,100682.84
2023-03-29T20:34:40.860Z,100671.25
2023-03-29T20:37:10.531Z,100664.28
2023-03-29T20:39:38.227Z,100642.28
2023-03-29T20:42:06.546Z,100633.47
2023-03-29T20:44:35.421Z,100623.94
2023-03-29T20:47:04.098Z,100616.00
2023-03-29T20:49:36.938Z,100620.59
2023-03-29T20:52:08.031Z,100625.75
2023-03-29T20:54:38.754Z,100620.47
2023-03-29T20:57:07.690Z,100623.13
2023-03-29T20:59:35.527Z,100618.53
2023-03-29T21:02:03.339Z,100602.22
2023-03-29T21:04:31.402Z,100605.56
2023-03-29T21:07:00.932Z,100597.59
2023-03-29T21:09:31.038Z,100598.72
2023-03-29T21:12:00.140Z,100603.88
2023-03-29T21:14:30.283Z,100594.13
2023-03-29T21:16:58.026Z,100595.66
2023-03-29T21:19:25.699Z,100590.63
2023-03-29T21:21:54.896Z,100586.31
2023-03-29T21:24:23.071Z,100580.88
2023-03-29T21:26:51.146Z,100570.28
2023-03-29T21:29:20.407Z,100561.50
2023-03-29T21:31:48.210Z,100556.06
2023-03-29T21:34:16.352Z,100559.69
2023-03-29T21:36:44.024Z,100557.19
2023-03-29T21:39:11.789Z,100549.09
2023-03-29T21:41:39.507Z,100545.47
2023-03-29T21:44:07.246Z,100533.59
2023-03-29T21:46:36.437Z,100550.06
2023-03-29T21:49:04.209Z,100539.63
2023-03-29T21:51:32.631Z,100537.66
2023-03-29T21:54:00.348Z,100534.19
2023-03-29T21:56:28.177Z,100523.75
2023-03-29T21:58:55.935Z,100532.66
2023-03-29T22:01:23.755Z,100518.69
2023-03-29T22:03:52.944Z,100516.06
2023-03-29T22:06:20.754Z,100523.03
2023-03-29T22:08:50.213Z,100525.97
2023-03-29T22:11:17.922Z,100516.88
2023-03-29T22:13:45.977Z,100515.06
2023-03-29T22:16:16.807Z,100520.38
2023-03-29T22:18:46.839Z,100517.31
2023-03-29T22:21:18.335Z,100514.66
2023-03-29T22:23:48.595Z,100502.41
2023-03-29T22:26:17.941Z,100504.06
2023-03-29T22:28:46.152Z,100503.25
2023-03-29T22:31:15.949Z,100502.56
2023-03-29T22:33:44.300Z,100492.78
2023-03-29T22:36:18.291Z,100490.28
2023-03-29T22:38:46.833Z,100488.59
2023-03-29T22:41:15.316Z,100476.34
2023-03-29T22:43:43.247Z,100474.66
2023-03-29T22:46:12.430Z,100473.81
2023-03-29T22:48:40.661Z,100475.78
2023-03-29T22:51:08.360Z,100482.06
2023-03-29T22:53:37.422Z,100476.09
2023-03-29T22:56:07.098Z,100467.41
2023-03-29T22:58:34.878Z,100463.41
2023-03-29T23:01:03.112Z,100466.59
2023-03-29T23:03:31.123Z,100459.63
2023-03-29T23:06:02.282Z,100452.66
2023-03-29T23:08:31.052Z,100439.41
2023-03-29T23:11:00.543Z,100442.06
2023-03-29T23:13:28.678Z,100443.72
2023-03-29T23:15:57.930Z,100444.72
2023-03-29T23:18:26.252Z,100448.34
2023-03-29T23:20:55.748Z,100432.59
2023-03-29T23:23:24.537Z,100438.59
2023-03-29T23:25:53.708Z,100439.28
2023-03-29T23:28:27.158Z,100441.78
2023-03-29T23:30:56.341Z,100434.97
2023-03-29T23:33:25.509Z,100438.44
2023-03-29T23:35:53.595Z,100438.44
2023-03-29T23:38:21.692Z,100438.75
2023-03-29T23:40:59.143Z,100429.81
2023-03-29T23:43:31.786Z,100430.78
2023-03-29T23:46:01.131Z,100426.47
2023-03-29T23:48:29.142Z,100417.81
2023-03-29T23:50:57.929Z,100413.50
2023-03-29T23:53:28.897Z,100399.28
2023-03-29T23:55:58.272Z,100404.56
2023-03-29T23:58:26.149Z,100402.91
